Time;durP1;ratioP1;P1;durP2;ratioP2;P2;SDS_P1;SDS_P2;PMS_P1;PMS_P2;Temp;Humidity;BMP_temperature;BMP_pressure;BME280_temperature;BME280_humidity;BME280_pressure;Samples;Min_cycle;Max_cycle;Signal;HPM_P1;HPM_P2
2023/09/12 00:00:52;;;;;;;;;;;;;;;21.11;29.40;98115.63;5017643;28;913;-78
2023/09/12 00:03:21;;;;;;;;;;;;;;;21.28;29.06;98114.41;5017284;28;997;-77
2023/09/12 00:05:53;;;;;;;;;;;;;;;21.59;28.37;98116.94;5017550;28;1001;-78
2023/09/12 00:08:19;;;;;;;;;;;;;;;21.40;28.62;98112.97;5051110;28;834;-78
2023/09/12 00:10:44;;;;;;;;;;;;;;;21.60;28.33;98098.69;5051574;28;1186;-78
2023/09/12 00:13:10;;;;;;;;;;;;;;;21.35;28.88;98104.19;5037095;28;1108;-78
2023/09/12 00:15:35;;;;;;;;;;;;;;;21.33;28.74;98107.47;5038956;28;1306;-78
2023/09/12 00:18:01;;;;;;;;;;;;;;;21.24;28.81;98099.56;5039862;28;1971;-77
2023/09/12 00:20:26;;;;;;;;;;;;;;;21.08;29.06;98096.69;5054949;28;945;-78
2023/09/12 00:22:54;;;;;;;;;;;;;;;21.29;28.68;98096.19;5054972;28;905;-78
2023/09/12 00:25:23;;;;;;;;;;;;;;;21.41;28.50;98096.78;5021146;28;1134;-78
2023/09/12 00:27:48;;;;;;;;;;;;;;;20.94;29.61;98097.03;5038003;28;930;-76
2023/09/12 00:30:14;;;;;;;;;;;;;;;21.33;28.87;98096.13;5054850;28;1740;-78
2023/09/12 00:32:39;;;;;;;;;;;;;;;21.22;28.91;98093.53;5038550;28;1099;-79
2023/09/12 00:35:05;;;;;;;;;;;;;;;21.19;29.01;98097.25;5054676;28;851;-77
2023/09/12 00:37:31;;;;;;;;;;;;;;;21.38;28.76;98095.63;5054732;28;1902;-78
2023/09/12 00:39:56;;;;;;;;;;;;;;;21.32;28.87;98095.34;5038249;28;1115;-78
2023/09/12 00:42:24;;;;;;;;;;;;;;;21.54;28.47;98094.81;5038048;28;875;-78
2023/09/12 00:44:50;;;;;;;;;;;;;;;21.44;28.54;98091.00;5054558;28;962;-78
2023/09/12 00:47:15;;;;;;;;;;;;;;;21.20;29.10;98098.06;5037846;28;1245;-78
2023/09/12 00:49:41;;;;;;;;;;;;;;;21.19;29.28;98097.25;5054785;28;801;-78
2023/09/12 00:52:06;;;;;;;;;;;;;;;21.48;28.66;98107.91;5038237;28;884;-78
2023/09/12 00:54:32;;;;;;;;;;;;;;;21.21;29.15;98100.44;5054106;28;808;-78
2023/09/12 00:56:57;;;;;;;;;;;;;;;21.11;29.38;98095.81;5020568;28;1402;-78
2023/09/12 00:59:23;;;;;;;;;;;;;;;21.07;29.46;98103.59;5020339;28;1918;-78
2023/09/12 01:01:49;;;;;;;;;;;;;;;21.30;29.08;98095.00;5020316;28;1206;-78
2023/09/12 01:04:15;;;;;;;;;;;;;;;21.14;29.12;98097.78;5020089;28;1196;-78
2023/09/12 01:06:40;;;;;;;;;;;;;;;21.21;29.08;98094.78;4997058;28;1073;-78
2023/09/12 01:09:07;;;;;;;;;;;;;;;21.35;28.88;98101.34;4965078;28;911;-78
2023/09/12 01:11:33;;;;;;;;;;;;;;;21.21;29.25;98106.09;4948602;28;1523;-77
2023/09/12 01:13:58;;;;;;;;;;;;;;;21.11;29.31;98101.47;4980820;28;1140;-78
2023/09/12 01:16:24;;;;;;;;;;;;;;;21.35;28.94;98104.19;4996898;28;979;-78
2023/09/12 01:18:49;;;;;;;;;;;;;;;21.29;28.86;98096.19;4964591;28;1987;-78
2023/09/12 01:21:36;;;;;;;;;;;;;;;21.43;28.56;98094.28;4964660;28;1101;-78
2023/09/12 01:24:02;;;;;;;;;;;;;;;21.36;29.08;98100.13;4963536;28;1234;-78
2023/09/12 01:26:39;;;;;;;;;;;;;;;21.46;28.82;98099.88;4996931;28;993;-78
2023/09/12 01:29:05;;;;;;;;;;;;;;;21.16;29.14;98092.47;4999294;28;992;-77
2023/09/12 01:31:31;;;;;;;;;;;;;;;21.16;29.32;98103.00;4999950;28;1247;-78
2023/09/12 01:33:57;;;;;;;;;;;;;;;21.13;29.35;98104.66;5016165;28;886;-78
2023/09/12 01:36:22;;;;;;;;;;;;;;;21.02;29.46;98101.28;4999615;28;1147;-77
2023/09/12 01:38:48;;;;;;;;;;;;;;;21.21;29.20;98100.44;5015830;28;1906;-79
2023/09/12 01:41:13;;;;;;;;;;;;;;;21.02;29.57;98104.09;4999800;28;1115;-78
2023/09/12 01:43:39;;;;;;;;;;;;;;;21.35;28.87;98104.19;5026024;28;854;-78
2023/09/12 01:46:05;;;;;;;;;;;;;;;21.14;29.40;98096.97;5054227;28;770;-78
2023/09/12 01:48:34;;;;;;;;;;;;;;;21.17;29.43;98105.38;5053245;28;875;-78
2023/09/12 01:51:03;;;;;;;;;;;;;;;21.30;29.16;98106.31;5053476;28;818;-78
2023/09/12 01:53:29;;;;;;;;;;;;;;;21.42;29.07;98104.03;5052874;28;856;-78
2023/09/12 01:55:55;;;;;;;;;;;;;;;21.18;29.29;98104.13;5036467;28;1195;-78
2023/09/12 01:58:21;;;;;;;;;;;;;;;21.27;29.23;98095.84;5036213;28;1910;-77
2023/09/12 02:00:46;;;;;;;;;;;;;;;21.47;28.89;98104.28;5036829;28;1311;-78
2023/09/12 02:03:12;;;;;;;;;;;;;;;21.42;29.02;98101.19;5053111;28;803;-78
2023/09/12 02:05:37;;;;;;;;;;;;;;;21.28;29.19;98100.25;5053536;28;1229;-77
2023/09/12 02:08:04;;;;;;;;;;;;;;;21.16;29.56;98091.69;5036390;28;1229;-77
2023/09/12 02:10:30;;;;;;;;;;;;;;;21.07;29.71;98101.56;5052983;28;1372;-78
2023/09/12 02:12:56;;;;;;;;;;;;;;;21.14;29.52;98094.97;5052818;28;879;-78
2023/09/12 02:15:21;;;;;;;;;;;;;;;21.29;29.02;98096.19;5052927;28;771;-77
2023/09/12 02:17:50;;;;;;;;;;;;;;;21.31;28.90;98092.97;5052713;28;1961;-78
2023/09/12 02:20:15;;;;;;;;;;;;;;;21.21;29.26;98093.97;5052786;28;909;-78
2023/09/12 02:22:41;;;;;;;;;;;;;;;21.18;29.37;98089.97;5036428;28;795;-77
2023/09/12 02:25:07;;;;;;;;;;;;;;;21.28;29.32;98094.59;5018333;28;1256;-78
2023/09/12 02:27:33;;;;;;;;;;;;;;;21.12;29.46;98097.41;5035233;28;868;-78
2023/09/12 02:29:58;;;;;;;;;;;;;;;21.06;29.61;98096.34;5034650;28;1011;-78
2023/09/12 02:32:24;;;;;;;;;;;;;;;21.01;29.51;98094.03;5018628;28;1155;-78
2023/09/12 02:34:49;;;;;;;;;;;;;;;21.26;29.22;98096.28;5034644;28;1444;-78
2023/09/12 02:37:15;;;;;;;;;;;;;;;21.07;29.73;98100.75;5034835;28;921;-78
2023/09/12 02:39:41;;;;;;;;;;;;;;;20.99;29.52;98094.47;4962989;28;1202;-78
2023/09/12 02:42:06;;;;;;;;;;;;;;;20.96;29.94;98100.22;4963240;28;1335;-78
2023/09/12 02:44:32;;;;;;;;;;;;;;;21.18;29.28;98101.31;4979278;28;929;-78
2023/09/12 02:46:57;;;;;;;;;;;;;;;21.38;28.88;98103.31;4979179;28;1216;-78
2023/09/12 02:49:23;;;;;;;;;;;;;;;21.07;29.41;98103.59;4963075;28;1148;-78
2023/09/12 02:51:48;;;;;;;;;;;;;;;21.22;29.29;98104.84;4940527;29;1109;-78
2023/09/12 02:54:14;;;;;;;;;;;;;;;21.24;29.41;98096.75;4940451;29;1104;-78
2023/09/12 02:56:39;;;;;;;;;;;;;;;21.16;29.65;98105.81;4954615;28;1290;-78
2023/09/12 02:59:05;;;;;;;;;;;;;;;21.14;29.36;98106.28;4975694;28;1918;-77
2023/09/12 03:01:30;;;;;;;;;;;;;;;21.18;29.43;98106.97;4975970;28;922;-78
2023/09/12 03:03:57;;;;;;;;;;;;;;;21.34;29.04;98103.38;4955535;29;1347;-78
2023/09/12 03:06:22;;;;;;;;;;;;;;;21.12;29.47;98100.25;4936919;29;1190;-78
2023/09/12 03:08:48;;;;;;;;;;;;;;;21.13;29.35;98101.81;4920199;29;1013;-77
2023/09/12 03:11:14;;;;;;;;;;;;;;;21.32;29.07;98100.22;4905069;29;1145;-78
2023/09/12 03:13:40;;;;;;;;;;;;;;;21.17;29.51;98104.59;4936574;29;1096;-78
2023/09/12 03:16:09;;;;;;;;;;;;;;;21.10;29.66;98108.38;4938081;29;1121;-78
2023/09/12 03:18:35;;;;;;;;;;;;;;;21.42;28.85;98109.69;4939160;28;1910;-78
2023/09/12 03:21:00;;;;;;;;;;;;;;;21.46;28.83;98104.75;4955655;29;1220;-79
2023/09/12 03:23:27;;;;;;;;;;;;;;;21.63;28.64;98108.38;4955664;29;1172;-78
2023/09/12 03:25:52;;;;;;;;;;;;;;;21.45;29.05;98103.13;4939496;29;1125;-79
2023/09/12 03:28:18;;;;;;;;;;;;;;;21.54;28.88;98106.16;4955595;29;934;-78
2023/09/12 03:30:44;;;;;;;;;;;;;;;21.49;29.05;98101.00;4939259;28;1284;-78
2023/09/12 03:33:09;;;;;;;;;;;;;;;21.46;28.98;98102.72;4962298;28;1480;-78
2023/09/12 03:35:35;;;;;;;;;;;;;;;21.43;29.37;98105.63;4965494;28;1315;-78
2023/09/12 03:38:01;;;;;;;;;;;;;;;21.32;29.52;98111.53;4987113;28;1910;-79
2023/09/12 03:40:30;;;;;;;;;;;;;;;21.33;29.41;98105.41;4994380;28;1249;-79
2023/09/12 03:42:56;;;;;;;;;;;;;;;21.52;29.20;98111.47;4994810;28;846;-78
2023/09/12 03:45:22;;;;;;;;;;;;;;;21.49;29.15;98110.28;5014084;28;1194;-78
2023/09/12 03:47:48;;;;;;;;;;;;;;;21.44;28.90;98118.53;4983549;28;931;-78
2023/09/12 03:50:15;;;;;;;;;;;;;;;21.48;29.23;98124.91;5002067;28;1131;-78
2023/09/12 03:52:40;;;;;;;;;;;;;;;21.39;29.51;98121.88;5001439;28;898;-79
2023/09/12 03:55:06;;;;;;;;;;;;;;;21.32;29.48;98123.66;5001689;28;1183;-78
2023/09/12 03:57:32;;;;;;;;;;;;;;;21.45;29.24;98125.78;5001728;28;1979;-78
2023/09/12 03:59:57;;;;;;;;;;;;;;;21.24;29.55;98116.53;5017821;28;941;-79
2023/09/12 04:02:23;;;;;;;;;;;;;;;21.46;29.31;98127.38;5001676;28;1354;-78
2023/09/12 04:04:49;;;;;;;;;;;;;;;21.22;29.54;98130.31;5016872;28;872;-78
2023/09/12 04:07:14;;;;;;;;;;;;;;;21.37;29.29;98132.84;5038003;28;1306;-78
2023/09/12 04:09:40;;;;;;;;;;;;;;;21.50;29.36;98139.41;5037204;28;835;-78
2023/09/12 04:12:06;;;;;;;;;;;;;;;21.51;29.36;98135.34;5004429;28;1277;-78
2023/09/12 04:14:32;;;;;;;;;;;;;;;21.70;29.05;98131.63;4997739;28;990;-79
2023/09/12 04:16:58;;;;;;;;;;;;;;;21.20;29.75;98138.47;4983454;28;1124;-78
2023/09/12 04:19:23;;;;;;;;;;;;;;;21.33;29.38;98142.22;5037317;28;1918;-78
2023/09/12 04:21:49;;;;;;;;;;;;;;;21.25;29.59;98143.59;5037530;28;1146;-78
2023/09/12 04:24:16;;;;;;;;;;;;;;;21.57;29.20;98145.72;5037164;28;908;-78
2023/09/12 04:26:43;;;;;;;;;;;;;;;21.48;29.37;98147.56;5037168;28;962;-78
2023/09/12 04:29:09;;;;;;;;;;;;;;;21.36;29.36;98139.75;5017436;28;1137;-78
2023/09/12 04:31:35;;;;;;;;;;;;;;;21.39;29.68;98138.88;5000939;28;1215;-78
2023/09/12 04:34:00;;;;;;;;;;;;;;;21.66;29.23;98136.59;4984861;28;1160;-79
2023/09/12 04:36:26;;;;;;;;;;;;;;;21.59;29.31;98136.75;5000926;28;1210;-78
2023/09/12 04:38:52;;;;;;;;;;;;;;;21.55;29.06;98139.69;4997351;28;1926;-79
2023/09/12 04:41:17;;;;;;;;;;;;;;;21.38;29.40;98140.09;4997922;28;1201;-78
2023/09/12 04:43:46;;;;;;;;;;;;;;;21.53;29.41;98136.50;4997266;28;894;-78
2023/09/12 04:46:12;;;;;;;;;;;;;;;21.28;29.84;98136.25;4997580;28;1212;-79
2023/09/12 04:48:38;;;;;;;;;;;;;;;21.61;29.08;98139.16;4981078;28;1356;-78
2023/09/12 04:51:03;;;;;;;;;;;;;;;21.35;29.64;98135.31;5002807;28;1239;-78
2023/09/12 04:53:34;;;;;;;;;;;;;;;21.33;29.96;98142.22;5020352;28;975;-79
2023/09/12 04:56:02;;;;;;;;;;;;;;;21.32;29.86;98151.94;5020128;28;1172;-79
2023/09/12 04:58:28;;;;;;;;;;;;;;;21.43;29.74;98146.03;5003975;28;1914;-78
2023/09/12 05:00:54;;;;;;;;;;;;;;;21.36;30.08;98140.56;4996847;28;947;-78
2023/09/12 05:03:19;;;;;;;;;;;;;;;21.61;29.61;98142.78;4980968;28;1254;-78
2023/09/12 05:05:46;;;;;;;;;;;;;;;21.66;29.43;98141.44;4981042;28;1195;-78
2023/09/12 05:08:12;;;;;;;;;;;;;;;21.55;29.71;98147.38;4996972;28;850;-78
2023/09/12 05:10:38;;;;;;;;;;;;;;;21.38;29.90;98152.22;4980689;28;1386;-79
2023/09/12 05:13:04;;;;;;;;;;;;;;;21.26;30.17;98147.22;4996967;28;771;-78
2023/09/12 05:15:30;;;;;;;;;;;;;;;21.41;30.01;98147.72;4996733;28;875;-78
2023/09/12 05:17:55;;;;;;;;;;;;;;;21.44;30.03;98163.81;4996839;28;1919;-78
2023/09/12 05:20:21;;;;;;;;;;;;;;;21.50;30.17;98151.56;5013058;28;882;-78
2023/09/12 05:22:46;;;;;;;;;;;;;;;21.42;30.28;98160.63;5013218;28;1189;-78
2023/09/12 05:25:12;;;;;;;;;;;;;;;21.78;29.64;98152.88;4996916;28;910;-79
2023/09/12 05:27:37;;;;;;;;;;;;;;;21.78;29.65;98152.88;5003293;28;1365;-79
2023/09/12 05:30:03;;;;;;;;;;;;;;;21.43;30.27;98157.34;5016350;28;1210;-79
2023/09/12 05:32:29;;;;;;;;;;;;;;;21.72;29.49;98157.47;5046303;28;1165;-78
2023/09/12 05:34:54;;;;;;;;;;;;;;;21.51;29.93;98160.84;5039306;28;1178;-78
2023/09/12 05:37:20;;;;;;;;;;;;;;;21.43;30.23;98156.56;5019813;28;1238;-78
2023/09/12 05:39:46;;;;;;;;;;;;;;;21.62;29.55;98146.41;5035389;28;1906;-78
2023/09/12 05:42:12;;;;;;;;;;;;;;;21.27;30.53;98155.28;5035996;28;841;-78
2023/09/12 05:44:37;;;;;;;;;;;;;;;21.60;29.88;98161.00;5019175;28;1200;-78
2023/09/12 05:47:03;;;;;;;;;;;;;;;20.95;31.16;98163.69;5019247;28;1266;-78
2023/09/12 05:49:29;;;;;;;;;;;;;;;21.52;29.99;98160.38;5035923;28;893;-78
2023/09/12 05:51:54;;;;;;;;;;;;;;;21.40;30.17;98163.09;5015448;28;1206;-79
2023/09/12 05:54:20;;;;;;;;;;;;;;;21.59;30.13;98151.72;4976387;28;1229;-79
2023/09/12 05:56:48;;;;;;;;;;;;;;;21.77;30.01;98148.47;4976893;28;1265;-79
2023/09/12 05:59:13;;;;;;;;;;;;;;;21.61;30.05;98153.31;4960423;28;1903;-79
2023/09/12 06:01:40;;;;;;;;;;;;;;;21.68;29.92;98156.78;4991892;28;1195;-79
2023/09/12 06:04:06;;;;;;;;;;;;;;;21.65;30.25;98162.50;4979777;28;1157;-79
2023/09/12 06:06:32;;;;;;;;;;;;;;;21.60;30.39;98163.84;4964591;28;1220;-80
2023/09/12 06:08:58;;;;;;;;;;;;;;;21.65;30.37;98163.31;4986698;28;1294;-80
2023/09/12 06:11:23;;;;;;;;;;;;;;;22.27;30.00;98169.84;4979303;28;1236;-82
2023/09/12 06:13:49;;;;;;;;;;;;;;;21.89;32.68;98160.31;4978145;28;1121;-75
2023/09/12 06:16:14;;;;;;;;;;;;;;;21.35;35.37;98178.59;4994408;28;1691;-75
2023/09/12 06:18:40;;;;;;;;;;;;;;;21.28;36.68;98179.50;4993903;28;1993;-76
2023/09/12 06:21:08;;;;;;;;;;;;;;;20.75;38.36;98181.44;4994965;28;950;-83
2023/09/12 06:23:34;;;;;;;;;;;;;;;20.78;37.49;98182.63;5011186;28;1101;-83
2023/09/12 06:25:59;;;;;;;;;;;;;;;20.83;36.49;98189.78;5043369;28;850;-83
2023/09/12 06:28:28;;;;;;;;;;;;;;;21.04;35.75;98192.19;5035854;28;774;-83
2023/09/12 06:30:54;;;;;;;;;;;;;;;20.91;35.37;98185.56;5052719;28;916;-84
2023/09/12 06:33:20;;;;;;;;;;;;;;;20.80;36.04;98189.44;5052346;28;1013;-83
2023/09/12 06:35:49;;;;;;;;;;;;;;;20.79;37.20;98187.84;5035733;28;891;-83
2023/09/12 06:38:15;;;;;;;;;;;;;;;20.81;37.32;98191.00;5035321;28;1906;-83
2023/09/12 06:40:42;;;;;;;;;;;;;;;20.99;37.11;98201.19;5035730;28;860;-83
2023/09/12 06:43:07;;;;;;;;;;;;;;;20.72;36.61;98204.13;5017626;28;869;-81
2023/09/12 06:45:35;;;;;;;;;;;;;;;20.86;35.89;98203.06;5034702;28;960;-83
2023/09/12 06:48:01;;;;;;;;;;;;;;;20.79;35.30;98210.47;5034038;28;919;-83
2023/09/12 06:50:26;;;;;;;;;;;;;;;21.12;35.54;98204.13;5034430;28;789;-83
2023/09/12 06:52:52;;;;;;;;;;;;;;;20.84;36.67;98214.03;5034434;28;1223;-82
2023/09/12 06:55:17;;;;;;;;;;;;;;;21.11;36.09;98203.34;5034126;28;859;-83
2023/09/12 06:57:43;;;;;;;;;;;;;;;21.19;35.81;98210.44;5034219;28;1902;-83
2023/09/12 07:00:09;;;;;;;;;;;;;;;20.68;36.25;98209.88;5034585;28;766;-83
2023/09/12 07:02:35;;;;;;;;;;;;;;;20.85;35.45;98212.78;5014643;28;977;-82
2023/09/12 07:05:01;;;;;;;;;;;;;;;20.95;34.71;98221.03;4981657;28;980;-82
2023/09/12 07:07:26;;;;;;;;;;;;;;;20.76;36.18;98222.63;5014390;28;1311;-83
2023/09/12 07:09:52;;;;;;;;;;;;;;;20.98;35.84;98222.19;5014262;28;966;-84
2023/09/12 07:12:17;;;;;;;;;;;;;;;21.04;35.73;98231.78;4997944;28;1338;-84
2023/09/12 07:14:43;;;;;;;;;;;;;;;21.02;36.46;98231.41;5028270;28;1030;-73
2023/09/12 07:17:09;;;;;;;;;;;;;;;21.58;36.00;98225.78;5033256;28;1106;-74
2023/09/12 07:19:35;;;;;;;;;;;;;;;22.39;34.35;98227.09;5017474;28;1906;-76
2023/09/12 07:22:00;;;;;;;;;;;;;;;22.34;33.96;98225.56;5034617;28;993;-78
2023/09/12 07:24:26;;;;;;;;;;;;;;;22.43;33.18;98233.44;5038608;28;1115;-81
2023/09/12 07:26:52;;;;;;;;;;;;;;;22.57;32.79;98230.22;5041474;28;882;-80
2023/09/12 07:29:17;;;;;;;;;;;;;;;22.14;32.61;98228.50;5041134;28;870;-79
2023/09/12 07:31:43;;;;;;;;;;;;;;;22.22;31.87;98235.56;5040727;28;1281;-76
2023/09/12 07:34:09;;;;;;;;;;;;;;;22.16;31.89;98231.69;5038082;28;1029;-77
2023/09/12 07:36:36;;;;;;;;;;;;;;;22.36;31.18;98221.03;5037488;28;957;-77
2023/09/12 07:39:02;;;;;;;;;;;;;;;22.04;31.04;98189.88;5038148;28;1930;-77
2023/09/12 07:41:27;;;;;;;;;;;;;;;22.24;31.56;98227.44;5039631;28;1295;-71
2023/09/12 07:43:53;;;;;;;;;;;;;;;22.52;31.52;98228.72;5039460;28;1054;-72
2023/09/12 07:46:18;;;;;;;;;;;;;;;22.57;32.30;98227.38;5039471;28;1287;-71
2023/09/12 07:48:44;;;;;;;;;;;;;;;22.44;32.88;98218.03;5039027;28;901;-69
2023/09/12 07:51:17;;;;;;;;;;;;;;;22.12;33.17;98230.97;5040198;28;987;-78
2023/09/12 07:53:43;;;;;;;;;;;;;;;21.93;32.80;98224.16;5038367;28;982;-78
2023/09/12 07:56:08;;;;;;;;;;;;;;;22.09;32.05;98218.47;5056112;28;1408;-78
2023/09/12 07:58:34;;;;;;;;;;;;;;;21.68;32.13;98224.75;5022325;28;1898;-80
2023/09/12 08:01:04;;;;;;;;;;;;;;;21.91;31.38;98228.66;5039035;28;944;-71
2023/09/12 08:03:30;;;;;;;;;;;;;;;21.77;32.46;98216.44;5039181;28;1024;-68
2023/09/12 08:05:57;;;;;;;;;;;;;;;22.40;32.03;98211.66;5038976;28;907;-76
2023/09/12 08:08:23;;;;;;;;;;;;;;;22.30;31.43;98220.00;5053919;28;978;-77
2023/09/12 08:10:49;;;;;;;;;;;;;;;21.88;31.53;98221.03;5054417;28;1056;-77
2023/09/12 08:13:14;;;;;;;;;;;;;;;21.96;31.55;98228.91;5037258;28;1018;-77
2023/09/12 08:15:40;;;;;;;;;;;;;;;22.15;30.66;98226.47;5054512;28;901;-77
2023/09/12 08:18:05;;;;;;;;;;;;;;;22.20;30.36;98221.06;5035974;28;1906;-77
2023/09/12 08:20:31;;;;;;;;;;;;;;;22.11;30.43;98229.38;5035880;28;960;-77
2023/09/12 08:22:57;;;;;;;;;;;;;;;21.97;30.70;98235.41;5016151;28;1278;-77
2023/09/12 08:25:23;;;;;;;;;;;;;;;22.09;30.27;98229.00;5016697;28;1202;-77
2023/09/12 08:27:48;;;;;;;;;;;;;;;22.24;29.87;98227.44;5016394;28;899;-77
2023/09/12 08:30:15;;;;;;;;;;;;;;;22.10;30.09;98224.94;5016041;28;1046;-77
2023/09/12 08:32:43;;;;;;;;;;;;;;;21.98;30.12;98231.31;5015817;28;1011;-76
2023/09/12 08:35:14;;;;;;;;;;;;;;;21.90;30.09;98227.06;5016354;28;978;-77
2023/09/12 08:37:40;;;;;;;;;;;;;;;22.04;29.77;98224.66;5015974;28;1906;-76
2023/09/12 08:40:08;;;;;;;;;;;;;;;21.85;29.75;98217.84;5022523;28;1367;-76
2023/09/12 08:42:38;;;;;;;;;;;;;;;22.04;29.51;98218.22;4995457;28;1495;-77
2023/09/12 08:45:04;;;;;;;;;;;;;;;22.06;29.45;98232.72;4996253;28;983;-77
2023/09/12 08:47:30;;;;;;;;;;;;;;;21.69;30.03;98220.66;4960805;28;1040;-76
2023/09/12 08:49:55;;;;;;;;;;;;;;;21.76;30.06;98223.34;4976797;28;960;-77
2023/09/12 08:52:21;;;;;;;;;;;;;;;21.97;29.53;98213.53;4960842;28;1100;-77
2023/09/12 08:54:46;;;;;;;;;;;;;;;22.12;29.38;98219.63;4996668;28;1004;-76
2023/09/12 08:57:13;;;;;;;;;;;;;;;21.99;29.36;98218.75;4999169;28;1101;-77
2023/09/12 08:59:38;;;;;;;;;;;;;;;22.09;29.22;98214.84;4999620;28;1981;-77
2023/09/12 09:02:04;;;;;;;;;;;;;;;22.10;29.12;98222.09;4999383;28;992;-76
2023/09/12 09:04:30;;;;;;;;;;;;;;;22.15;29.04;98223.63;5015367;28;961;-77
2023/09/12 09:06:57;;;;;;;;;;;;;;;21.81;29.74;98224.81;4999487;28;972;-77
2023/09/12 09:09:24;;;;;;;;;;;;;;;22.06;29.10;98225.00;4999154;28;960;-76
2023/09/12 09:11:49;;;;;;;;;;;;;;;21.92;29.48;98218.94;5015279;28;1057;-77
2023/09/12 09:14:15;;;;;;;;;;;;;;;21.93;29.34;98215.66;5015336;28;1206;-77
2023/09/12 09:16:41;;;;;;;;;;;;;;;21.68;29.65;98219.06;5015447;28;1067;-77
2023/09/12 09:19:09;;;;;;;;;;;;;;;21.71;29.77;98223.88;5017149;28;1991;-76
2023/09/12 09:21:35;;;;;;;;;;;;;;;21.87;29.33;98230.78;5056257;28;1243;-76
2023/09/12 09:24:06;;;;;;;;;;;;;;;21.96;29.24;98228.13;5055995;28;1011;-77
2023/09/12 09:26:47;;;;;;;;;;;;;;;22.05;29.04;98219.81;5038219;28;1011;-77
2023/09/12 09:29:14;;;;;;;;;;;;;;;21.69;29.68;98220.66;5038163;28;1005;-76
2023/09/12 09:31:43;;;;;;;;;;;;;;;21.98;29.31;98217.16;5055109;28;1263;-76
2023/09/12 09:34:15;;;;;;;;;;;;;;;21.84;29.36;98223.94;5038050;28;969;-76
2023/09/12 09:36:42;;;;;;;;;;;;;;;22.18;28.79;98222.75;5054771;28;1014;-76
2023/09/12 09:39:07;;;;;;;;;;;;;;;21.73;29.30;98220.59;5002108;28;1983;-77
2023/09/12 09:41:33;;;;;;;;;;;;;;;21.79;29.35;98225.28;5035106;28;961;-77
2023/09/12 09:43:59;;;;;;;;;;;;;;;22.01;28.97;98224.75;5034958;28;1197;-77
2023/09/12 09:46:25;;;;;;;;;;;;;;;21.75;29.23;98227.38;4994329;28;1670;-76
2023/09/12 09:48:51;;;;;;;;;;;;;;;21.74;29.53;98228.63;4979307;28;944;-76
2023/09/12 09:51:16;;;;;;;;;;;;;;;21.92;29.40;98227.44;4979190;28;991;-77
2023/09/12 09:53:43;;;;;;;;;;;;;;;21.89;29.31;98228.31;4995018;28;1002;-76
2023/09/12 09:56:11;;;;;;;;;;;;;;;21.98;29.18;98234.16;4995093;28;908;-77
2023/09/12 09:58:47;;;;;;;;;;;;;;;21.96;29.08;98228.13;4994940;28;1906;-76
2023/09/12 10:01:12;;;;;;;;;;;;;;;21.82;29.30;98227.25;4979026;28;952;-76
2023/09/12 10:03:38;;;;;;;;;;;;;;;22.00;29.31;98228.84;4978892;28;949;-77
2023/09/12 10:06:04;;;;;;;;;;;;;;;21.89;29.35;98225.47;4975492;28;1142;-77
2023/09/12 10:08:30;;;;;;;;;;;;;;;21.71;29.35;98226.69;4959687;28;982;-78
2023/09/12 10:10:55;;;;;;;;;;;;;;;21.56;29.36;98182.97;4958827;28;1203;-77
2023/09/12 10:13:22;;;;;;;;;;;;;;;21.97;29.19;98229.72;4995059;28;1116;-76
2023/09/12 10:15:47;;;;;;;;;;;;;;;21.72;29.53;98225.44;4995470;28;2107;-77
2023/09/12 10:18:14;;;;;;;;;;;;;;;21.55;29.63;98218.16;5014178;28;1963;-76
2023/09/12 10:20:48;;;;;;;;;;;;;;;21.81;29.12;98217.16;5017766;28;1120;-77
2023/09/12 10:23:21;;;;;;;;;;;;;;;21.98;28.90;98211.50;5017309;28;1155;-77
2023/09/12 10:25:46;;;;;;;;;;;;;;;22.14;28.67;98217.19;5033885;28;1069;-77
2023/09/12 10:28:12;;;;;;;;;;;;;;;22.12;28.73;98224.50;5017567;28;1000;-77
2023/09/12 10:30:37;;;;;;;;;;;;;;;21.65;29.51;98222.78;5034190;28;994;-77
2023/09/12 10:33:04;;;;;;;;;;;;;;;21.80;29.31;98221.19;5033599;28;1005;-77
2023/09/12 10:35:30;;;;;;;;;;;;;;;21.52;29.81;98211.34;5017449;28;977;-76
2023/09/12 10:37:55;;;;;;;;;;;;;;;21.59;29.86;98214.00;5065849;28;1906;-77
2023/09/12 10:40:21;;;;;;;;;;;;;;;21.76;29.58;98214.84;5056138;28;882;-77
2023/09/12 10:42:46;;;;;;;;;;;;;;;21.76;29.56;98220.50;5071443;28;1064;-77
2023/09/12 10:45:13;;;;;;;;;;;;;;;21.75;29.32;98212.44;5056058;28;897;-77
2023/09/12 10:47:38;;;;;;;;;;;;;;;21.84;29.15;98213.41;5071490;28;915;-76
2023/09/12 10:50:04;;;;;;;;;;;;;;;21.85;28.90;98206.50;5054926;28;928;-76
2023/09/12 10:52:30;;;;;;;;;;;;;;;21.92;28.99;98210.44;5054710;28;1024;-77
2023/09/12 10:54:55;;;;;;;;;;;;;;;21.64;29.31;98204.19;5071239;28;858;-77
2023/09/12 10:57:21;;;;;;;;;;;;;;;21.91;28.82;98203.16;5055467;28;942;-76
2023/09/12 10:59:58;;;;;;;;;;;;;;;21.57;29.50;98201.53;5071520;28;1909;-76
2023/09/12 11:02:31;;;;;;;;;;;;;;;21.82;29.19;98204.56;5055940;28;926;-76
2023/09/12 11:04:59;;;;;;;;;;;;;;;21.72;29.31;98202.78;5070882;28;1030;-77
2023/09/12 11:07:37;;;;;;;;;;;;;;;21.97;28.98;98201.41;5054769;28;1238;-77
2023/09/12 11:10:16;;;;;;;;;;;;;;;21.64;29.53;98200.56;5054340;28;1529;-77
2023/09/12 11:12:42;;;;;;;;;;;;;;;21.73;29.27;98193.06;5054132;28;972;-76
2023/09/12 11:15:08;;;;;;;;;;;;;;;21.73;29.46;98198.72;5037715;28;1095;-77
2023/09/12 11:17:37;;;;;;;;;;;;;;;21.67;29.37;98200.50;5054418;28;971;-76
2023/09/12 11:20:09;;;;;;;;;;;;;;;21.74;29.30;98194.66;5053858;28;1223;-76
2023/09/12 11:22:35;;;;;;;;;;;;;;;21.78;29.24;98195.38;5054512;28;1525;-77
2023/09/12 11:25:05;;;;;;;;;;;;;;;21.51;29.61;98197.63;5055792;28;968;-76
2023/09/12 11:27:49;;;;;;;;;;;;;;;21.66;29.42;98181.09;5054198;28;1296;-76
2023/09/12 11:30:15;;;;;;;;;;;;;;;21.60;29.54;98189.31;5055214;28;1008;-76
2023/09/12 11:32:40;;;;;;;;;;;;;;;21.45;30.09;98188.06;5053072;28;1102;-76
2023/09/12 11:35:06;;;;;;;;;;;;;;;21.96;29.12;98185.63;5036547;28;1052;-77
2023/09/12 11:37:33;;;;;;;;;;;;;;;21.92;29.23;98187.75;5052941;28;951;-77
2023/09/12 11:39:58;;;;;;;;;;;;;;;22.03;29.03;98183.41;5036353;28;1923;-76
2023/09/12 11:42:25;;;;;;;;;;;;;;;21.75;29.63;98184.09;5052966;28;1107;-76
2023/09/12 11:44:51;;;;;;;;;;;;;;;21.99;29.12;98193.25;5052989;28;988;-77
2023/09/12 11:47:16;;;;;;;;;;;;;;;21.87;29.21;98191.13;5052909;28;984;-77
2023/09/12 11:49:42;;;;;;;;;;;;;;;21.72;29.60;98190.69;5036170;28;1130;-77
2023/09/12 11:52:08;;;;;;;;;;;;;;;21.42;29.89;98171.97;5036163;28;970;-77
2023/09/12 11:54:33;;;;;;;;;;;;;;;21.71;29.55;98181.38;5016411;28;1187;-76
2023/09/12 11:57:02;;;;;;;;;;;;;;;21.88;29.07;98182.19;5000240;28;1228;-76
2023/09/12 11:59:27;;;;;;;;;;;;;;;21.88;29.22;98175.72;5000126;28;1975;-77
2023/09/12 12:01:53;;;;;;;;;;;;;;;21.64;29.49;98173.03;5016969;28;1071;-76
2023/09/12 12:04:30;;;;;;;;;;;;;;;21.84;28.98;98173.75;5000032;28;1186;-76
2023/09/12 12:06:56;;;;;;;;;;;;;;;21.82;29.39;98166.97;5017705;28;958;-76
2023/09/12 12:09:21;;;;;;;;;;;;;;;21.96;28.93;98165.78;5018827;28;1012;-77
2023/09/12 12:11:47;;;;;;;;;;;;;;;21.89;29.17;98174.47;4987235;28;1080;-77
2023/09/12 12:14:16;;;;;;;;;;;;;;;21.73;29.31;98163.94;5036537;28;954;-77
2023/09/12 12:16:42;;;;;;;;;;;;;;;21.66;29.40;98159.25;5020306;28;960;-76
2023/09/12 12:19:08;;;;;;;;;;;;;;;21.75;29.19;98169.94;5004030;28;1907;-77
2023/09/12 12:21:34;;;;;;;;;;;;;;;21.62;29.45;98169.06;4964646;28;1365;-77
2023/09/12 12:24:00;;;;;;;;;;;;;;;21.79;29.17;98174.28;4996711;28;1162;-77
2023/09/12 12:26:26;;;;;;;;;;;;;;;21.57;29.74;98173.22;4997859;28;907;-77
2023/09/12 12:28:52;;;;;;;;;;;;;;;21.57;29.67;98168.34;4984048;28;1314;-77
2023/09/12 12:31:17;;;;;;;;;;;;;;;21.90;29.07;98162.69;5016520;28;1055;-77
2023/09/12 12:33:49;;;;;;;;;;;;;;;21.85;29.26;98166.84;5016569;28;1001;-78
2023/09/12 12:36:14;;;;;;;;;;;;;;;21.70;29.25;98154.28;5033984;28;1020;-77
2023/09/12 12:38:43;;;;;;;;;;;;;;;21.53;29.70;98161.19;5019669;28;1902;-77
2023/09/12 12:41:08;;;;;;;;;;;;;;;21.85;29.22;98154.72;5036109;28;972;-76
2023/09/12 12:43:34;;;;;;;;;;;;;;;21.65;29.25;98163.31;5035809;28;1044;-77
2023/09/12 12:45:59;;;;;;;;;;;;;;;21.61;29.68;98145.63;5036013;28;970;-78
2023/09/12 12:48:32;;;;;;;;;;;;;;;21.83;29.30;98157.22;5035515;28;1091;-77
2023/09/12 12:50:57;;;;;;;;;;;;;;;21.71;29.31;98155.91;5036113;28;924;-77
2023/09/12 12:53:38;;;;;;;;;;;;;;;21.70;29.35;98157.09;5035839;28;1017;-76
2023/09/12 12:56:03;;;;;;;;;;;;;;;21.59;29.41;98159.41;5035716;28;1089;-76